createdAt,value
2018-09-14T00:02:18.703Z,25.37
2018-09-14T00:04:47.606Z,25.93
2018-09-14T00:07:16.276Z,25.00
2018-09-14T00:09:44.946Z,24.63
2018-09-14T00:12:13.525Z,26.20
2018-09-14T00:14:42.103Z,25.83
2018-09-14T00:17:10.680Z,25.47
2018-09-14T00:19:39.341Z,25.53
2018-09-14T00:22:08.061Z,27.27
2018-09-14T00:24:36.814Z,27.43
2018-09-14T00:27:06.044Z,26.77
2018-09-14T00:29:34.662Z,27.07
2018-09-14T00:32:03.242Z,26.40
2018-09-14T00:34:31.903Z,27.33
2018-09-14T00:37:00.504Z,28.70
2018-09-14T00:39:29.309Z,28.13
2018-09-14T00:41:57.838Z,29.30
2018-09-14T00:44:26.421Z,29.77
2018-09-14T00:46:54.993Z,29.57
2018-09-14T00:49:23.717Z,29.47
2018-09-14T00:51:52.334Z,29.90
2018-09-14T00:54:21.057Z,28.87
2018-09-14T00:56:49.619Z,28.90
2018-09-14T00:59:18.251Z,29.60
2018-09-14T01:01:47.041Z,30.00
2018-09-14T01:04:15.681Z,32.17
2018-09-14T01:06:44.300Z,30.23
2018-09-14T01:09:18.041Z,28.97
2018-09-14T01:11:47.325Z,26.70
2018-09-14T01:14:15.924Z,27.40
2018-09-14T01:16:44.656Z,28.00
2018-09-14T01:19:13.216Z,27.53
2018-09-14T01:21:41.982Z,29.17
2018-09-14T01:24:10.545Z,28.83
2018-09-14T01:26:39.206Z,27.93
2018-09-14T01:29:07.758Z,28.40
2018-09-14T01:31:36.275Z,30.27
2018-09-14T01:34:04.899Z,29.70
2018-09-14T01:36:34.316Z,26.10
2018-09-14T01:39:03.109Z,23.20
2018-09-14T01:41:31.747Z,24.10
2018-09-14T01:44:00.350Z,25.63
2018-09-14T01:46:28.975Z,25.10
2018-09-14T01:48:57.656Z,26.80
2018-09-14T01:51:26.459Z,30.33
2018-09-14T01:53:55.023Z,30.80
2018-09-14T01:56:23.573Z,30.27
2018-09-14T01:58:52.173Z,29.47
2018-09-14T02:01:20.970Z,31.93
2018-09-14T02:03:49.797Z,32.40
2018-09-14T02:06:18.350Z,31.87
2018-09-14T02:08:47.035Z,33.37
2018-09-14T02:11:15.582Z,35.07
2018-09-14T02:13:44.244Z,35.30
2018-09-14T02:16:12.841Z,31.33
2018-09-14T02:18:41.457Z,31.97
2018-09-14T02:21:10.050Z,31.67
2018-09-14T02:23:38.789Z,34.10
2018-09-14T02:26:07.618Z,34.27
2018-09-14T02:28:36.320Z,35.27
2018-09-14T02:31:04.890Z,34.67
2018-09-14T02:33:33.489Z,35.87
2018-09-14T02:36:02.027Z,36.13
2018-09-14T02:38:30.666Z,36.30
2018-09-14T02:40:59.393Z,33.57
2018-09-14T02:43:27.934Z,32.87
2018-09-14T02:45:57.345Z,30.67
2018-09-14T02:48:25.897Z,31.20
2018-09-14T02:50:54.463Z,28.07
2018-09-14T02:53:23.097Z,28.67
2018-09-14T02:55:51.745Z,28.27
2018-09-14T02:58:20.336Z,26.93
2018-09-14T03:00:48.931Z,26.37
2018-09-14T03:03:17.464Z,27.33
2018-09-14T03:05:46.197Z,27.10
2018-09-14T03:08:14.753Z,26.20
2018-09-14T03:10:43.327Z,26.67
2018-09-14T03:13:11.885Z,28.87
2018-09-14T03:15:40.550Z,23.23
2018-09-14T03:18:09.100Z,21.77
2018-09-14T03:20:37.780Z,20.90
2018-09-14T03:23:06.386Z,14.60
2018-09-14T03:25:34.949Z,12.47
2018-09-14T03:28:03.518Z,12.87
2018-09-14T03:30:32.064Z,9.60
2018-09-14T03:33:00.656Z,9.60
2018-09-14T03:35:29.200Z,11.80
2018-09-14T03:37:57.870Z,10.30
2018-09-14T03:40:26.419Z,10.60
2018-09-14T03:42:54.995Z,9.13
2018-09-14T03:45:24.329Z,7.40
2018-09-14T03:47:53.967Z,7.20
2018-09-14T03:50:22.487Z,6.50
2018-09-14T03:52:51.037Z,6.70
2018-09-14T03:55:19.617Z,7.17
2018-09-14T03:57:48.240Z,6.80
2018-09-14T04:00:16.886Z,5.77
2018-09-14T04:02:45.451Z,6.50
2018-09-14T04:05:14.068Z,6.77
2018-09-14T04:07:42.785Z,6.90
2018-09-14T04:10:11.392Z,8.37
2018-09-14T04:12:39.989Z,13.07
2018-09-14T04:15:08.567Z,15.63
2018-09-14T04:17:37.152Z,17.63
2018-09-14T04:20:05.713Z,17.37
2018-09-14T04:22:34.288Z,17.00
2018-09-14T04:25:02.814Z,15.77
2018-09-14T04:27:31.441Z,14.40
2018-09-14T04:30:00.189Z,16.17
2018-09-14T04:32:29.067Z,19.07
2018-09-14T04:34:57.786Z,16.50
2018-09-14T04:37:26.396Z,14.37
2018-09-14T04:39:55.049Z,13.93
2018-09-14T04:42:23.641Z,11.80
2018-09-14T04:44:52.232Z,11.93
2018-09-14T04:47:20.816Z,12.20
2018-09-14T04:49:49.539Z,10.27
2018-09-14T04:52:18.220Z,9.93
2018-09-14T04:54:46.822Z,8.40
2018-09-14T04:57:15.439Z,8.00
2018-09-14T04:59:43.990Z,7.83
2018-09-14T05:02:12.647Z,6.80
2018-09-14T05:04:41.382Z,6.67
2018-09-14T05:07:10.182Z,6.50
2018-09-14T05:09:38.733Z,6.23
2018-09-14T05:12:07.342Z,6.47
2018-09-14T05:14:35.876Z,7.50
2018-09-14T05:17:04.543Z,6.57
2018-09-14T05:19:33.121Z,6.67
2018-09-14T05:22:02.070Z,7.27
2018-09-14T05:24:31.104Z,7.60
2018-09-14T05:26:59.569Z,7.30
2018-09-14T05:29:28.087Z,6.80
2018-09-14T05:31:57.202Z,7.33
2018-09-14T05:34:25.919Z,7.77
2018-09-14T05:36:54.434Z,8.17
2018-09-14T05:39:23.091Z,6.73
2018-09-14T05:41:51.608Z,7.20
2018-09-14T05:44:20.191Z,7.20
2018-09-14T05:46:48.914Z,6.53
2018-09-14T05:49:17.509Z,6.63
2018-09-14T05:51:46.075Z,6.50
2018-09-14T05:54:14.641Z,6.70
2018-09-14T05:56:43.207Z,6.30
2018-09-14T05:59:11.670Z,5.60
2018-09-14T06:01:40.682Z,5.53
2018-09-14T06:04:09.217Z,5.80
2018-09-14T06:06:37.794Z,5.10
2018-09-14T06:09:09.495Z,5.60
2018-09-14T06:11:38.221Z,5.87
2018-09-14T06:14:06.846Z,5.60
2018-09-14T06:16:36.377Z,5.33
2018-09-14T06:19:05.066Z,5.70
2018-09-14T06:21:33.537Z,5.80
2018-09-14T06:24:02.107Z,5.50
2018-09-14T06:26:30.664Z,5.13
2018-09-14T06:28:59.253Z,5.33
2018-09-14T06:31:27.778Z,5.20
2018-09-14T06:33:56.341Z,5.53
2018-09-14T06:36:25.578Z,5.93
2018-09-14T06:38:54.075Z,5.50
2018-09-14T06:41:22.788Z,5.13
2018-09-14T06:43:51.306Z,5.40
2018-09-14T06:46:19.803Z,5.33
2018-09-14T06:48:48.348Z,6.07
2018-09-14T06:51:16.810Z,6.83
2018-09-14T06:53:45.374Z,7.17
2018-09-14T06:56:14.067Z,6.70
2018-09-14T06:58:42.613Z,6.43
2018-09-14T07:01:11.462Z,6.53
2018-09-14T07:03:40.035Z,6.10
2018-09-14T07:06:08.826Z,5.80
2018-09-14T07:08:37.385Z,7.23
2018-09-14T07:11:05.911Z,7.53
2018-09-14T07:13:35.750Z,8.80
2018-09-14T07:16:04.379Z,8.67
2018-09-14T07:18:33.115Z,9.13
2018-09-14T07:21:01.708Z,9.37
2018-09-14T07:23:30.213Z,9.97
2018-09-14T07:25:58.665Z,9.40
2018-09-14T07:28:27.204Z,8.80
2018-09-14T07:30:55.775Z,9.67
2018-09-14T07:33:24.288Z,9.50
2018-09-14T07:35:52.777Z,9.90
2018-09-14T07:38:21.324Z,9.57
2018-09-14T07:40:49.845Z,10.43
2018-09-14T07:43:18.429Z,10.70
2018-09-14T07:45:47.041Z,10.67
2018-09-14T07:48:15.751Z,10.90
2018-09-14T07:50:46.490Z,10.60
2018-09-14T07:53:15.177Z,11.30
2018-09-14T07:55:43.776Z,12.47
2018-09-14T07:58:12.550Z,14.70
2018-09-14T08:00:41.163Z,15.70
2018-09-14T08:03:10.535Z,14.70
2018-09-14T08:05:39.196Z,14.03
2018-09-14T08:08:07.800Z,13.80
2018-09-14T08:10:36.412Z,13.60
2018-09-14T08:13:05.117Z,12.70
2018-09-14T08:15:33.709Z,12.17
2018-09-14T08:18:02.197Z,11.93
2018-09-14T08:20:31.029Z,10.53
2018-09-14T08:23:01.152Z,10.90
2018-09-14T08:25:29.717Z,13.67
2018-09-14T08:27:58.264Z,13.97
2018-09-14T08:30:26.986Z,12.80
2018-09-14T08:32:55.694Z,13.90
2018-09-14T08:35:24.289Z,12.90
2018-09-14T08:37:53.089Z,13.27
2018-09-14T08:40:21.637Z,13.63
2018-09-14T08:42:50.161Z,13.03
2018-09-14T08:45:18.753Z,12.77
2018-09-14T08:47:47.265Z,15.10
2018-09-14T08:50:15.787Z,14.90
2018-09-14T08:52:44.327Z,15.30
2018-09-14T08:55:12.865Z,14.90
2018-09-14T08:57:41.394Z,17.40
2018-09-14T09:00:10.026Z,18.17
2018-09-14T09:02:38.577Z,17.53
2018-09-14T09:05:07.216Z,20.30
2018-09-14T09:07:35.823Z,20.27
2018-09-14T09:10:04.477Z,19.00
2018-09-14T09:12:33.067Z,18.37
2018-09-14T09:15:01.710Z,18.37
2018-09-14T09:17:30.429Z,19.13
2018-09-14T09:20:00.178Z,20.20
2018-09-14T09:22:28.912Z,20.30
2018-09-14T09:24:57.517Z,19.97
2018-09-14T09:27:26.081Z,22.13
2018-09-14T09:29:54.646Z,21.40
2018-09-14T09:32:23.242Z,20.70
2018-09-14T09:34:52.478Z,19.20
2018-09-14T09:37:21.056Z,21.33
2018-09-14T09:39:49.547Z,20.90
2018-09-14T09:42:18.096Z,19.73
2018-09-14T09:44:46.652Z,21.47
2018-09-14T09:47:15.237Z,20.63
2018-09-14T09:49:43.822Z,20.93
2018-09-14T09:52:12.453Z,22.73
2018-09-14T09:54:41.613Z,22.60
2018-09-14T09:57:10.490Z,19.50
2018-09-14T09:59:39.527Z,21.27
2018-09-14T10:02:14.277Z,20.80
2018-09-14T10:04:49.037Z,22.43
2018-09-14T10:07:17.602Z,21.67
2018-09-14T10:09:46.767Z,20.37
2018-09-14T10:12:15.486Z,21.63
2018-09-14T10:14:44.134Z,20.13
2018-09-14T10:17:12.695Z,21.27
2018-09-14T10:19:41.373Z,20.03
2018-09-14T10:22:09.909Z,20.67
2018-09-14T10:24:38.610Z,20.37
2018-09-14T10:27:07.217Z,20.27
2018-09-14T10:29:35.939Z,20.57
2018-09-14T10:32:04.481Z,21.13
2018-09-14T10:34:33.053Z,20.30
2018-09-14T10:37:02.000Z,20.60
2018-09-14T10:39:30.465Z,21.03
2018-09-14T10:41:58.999Z,20.63
2018-09-14T10:44:27.521Z,21.23
2018-09-14T10:46:56.061Z,21.23
2018-09-14T10:49:24.570Z,21.13
2018-09-14T10:51:53.112Z,21.43
2018-09-14T10:54:21.649Z,21.37
2018-09-14T10:56:50.145Z,19.60
2018-09-14T10:59:18.640Z,20.83
2018-09-14T11:01:47.089Z,20.80
2018-09-14T11:04:15.640Z,21.63
2018-09-14T11:06:44.298Z,22.10
2018-09-14T11:09:13.825Z,20.47
2018-09-14T11:11:42.504Z,20.97
2018-09-14T11:14:11.291Z,20.47
2018-09-14T11:16:39.761Z,21.77
2018-09-14T11:19:08.319Z,22.10
2018-09-14T11:21:36.810Z,21.40
2018-09-14T11:24:05.278Z,21.67
2018-09-14T11:26:33.833Z,19.73
2018-09-14T11:29:02.294Z,21.27
2018-09-14T11:31:30.774Z,21.83
2018-09-14T11:33:59.443Z,21.20
2018-09-14T11:36:28.559Z,21.87
2018-09-14T11:38:57.196Z,21.07
2018-09-14T11:41:25.886Z,21.83
2018-09-14T11:43:54.347Z,21.37
2018-09-14T11:46:22.845Z,20.57
2018-09-14T11:48:51.645Z,21.13
2018-09-14T11:51:20.172Z,20.83
2018-09-14T11:53:49.209Z,19.23
2018-09-14T11:56:17.696Z,20.80
2018-09-14T11:58:46.161Z,20.70
2018-09-14T12:01:14.717Z,20.10
2018-09-14T12:03:43.223Z,20.37
2018-09-14T12:06:11.958Z,20.13
2018-09-14T12:08:40.401Z,21.30
2018-09-14T12:11:09.113Z,22.37
2018-09-14T12:13:37.721Z,21.87
2018-09-14T12:16:06.224Z,19.93
2018-09-14T12:18:34.727Z,20.27
2018-09-14T12:21:03.448Z,20.20
2018-09-14T12:23:31.971Z,20.17
2018-09-14T12:26:00.514Z,19.40
2018-09-14T12:28:29.095Z,19.03
2018-09-14T12:30:58.025Z,21.00
2018-09-14T12:33:26.529Z,21.37
2018-09-14T12:35:55.227Z,22.33
2018-09-14T12:38:23.769Z,23.27
2018-09-14T12:40:52.340Z,24.20
2018-09-14T12:43:20.840Z,24.80
2018-09-14T12:45:49.407Z,23.97
2018-09-14T12:48:18.046Z,23.90
2018-09-14T12:50:46.501Z,26.47
2018-09-14T12:53:15.086Z,26.93
2018-09-14T12:55:43.625Z,29.30
2018-09-14T12:58:12.173Z,29.53
2018-09-14T13:00:40.669Z,24.53
2018-09-14T13:03:09.354Z,25.13
2018-09-14T13:05:37.813Z,23.20
2018-09-14T13:08:06.335Z,24.37
2018-09-14T13:10:34.835Z,23.10
2018-09-14T13:13:03.297Z,23.60
2018-09-14T13:15:31.766Z,24.17
2018-09-14T13:18:00.303Z,24.57
2018-09-14T13:20:28.921Z,25.77
2018-09-14T13:22:57.521Z,25.83
2018-09-14T13:25:25.985Z,26.47
2018-09-14T13:27:54.482Z,26.90
2018-09-14T13:30:23.935Z,27.03
2018-09-14T13:32:58.213Z,26.17
2018-09-14T13:35:26.694Z,25.27
2018-09-14T13:38:04.544Z,25.63
2018-09-14T13:40:34.953Z,23.47
2018-09-14T13:43:03.415Z,24.30
2018-09-14T13:45:38.576Z,25.27
2018-09-14T13:48:07.086Z,26.00
2018-09-14T13:50:35.788Z,24.70
2018-09-14T13:53:04.382Z,24.87
2018-09-14T13:55:32.901Z,24.47
2018-09-14T13:58:01.412Z,25.33
2018-09-14T14:00:29.963Z,24.80
2018-09-14T14:02:59.294Z,24.83
2018-09-14T14:05:27.985Z,23.83
2018-09-14T14:07:56.530Z,25.60
2018-09-14T14:10:25.362Z,24.80
2018-09-14T14:12:53.765Z,24.40
2018-09-14T14:15:22.521Z,26.23
2018-09-14T14:17:51.043Z,26.27
2018-09-14T14:20:19.596Z,26.33
2018-09-14T14:22:48.169Z,24.60
2018-09-14T14:25:17.645Z,25.97
2018-09-14T14:27:46.210Z,25.53
2018-09-14T14:30:15.082Z,24.93
2018-09-14T14:32:43.566Z,26.67
2018-09-14T14:35:12.023Z,24.47
2018-09-14T14:37:40.570Z,25.33
2018-09-14T14:40:09.078Z,25.37
2018-09-14T14:42:37.914Z,25.73
2018-09-14T14:45:06.474Z,25.13
2018-09-14T14:47:35.022Z,26.03
2018-09-14T14:50:03.647Z,26.53
2018-09-14T14:52:32.389Z,25.57
2018-09-14T14:55:00.913Z,27.33
2018-09-14T14:57:29.422Z,27.83
2018-09-14T14:59:57.892Z,27.23
2018-09-14T15:02:26.425Z,29.37
2018-09-14T15:04:55.637Z,28.87
2018-09-14T15:07:24.206Z,27.67
2018-09-14T15:09:52.914Z,27.77
2018-09-14T15:12:22.066Z,28.07
2018-09-14T15:14:50.909Z,27.37
2018-09-14T15:17:19.437Z,28.80
2018-09-14T15:19:48.041Z,27.53
2018-09-14T15:22:16.652Z,28.77
2018-09-14T15:24:45.217Z,38.30
2018-09-14T15:27:13.990Z,34.17
2018-09-14T15:29:42.611Z,31.57
2018-09-14T15:32:11.125Z,29.57
2018-09-14T15:34:39.755Z,30.27
2018-09-14T15:37:08.298Z,29.40
2018-09-14T15:39:36.947Z,30.27
2018-09-14T15:42:05.537Z,30.50
2018-09-14T15:44:34.366Z,28.43
2018-09-14T15:47:02.909Z,29.57
2018-09-14T15:49:31.475Z,27.83
2018-09-14T15:52:00.038Z,29.33
2018-09-14T15:54:29.094Z,26.33
2018-09-14T15:56:57.580Z,26.23
2018-09-14T15:59:26.109Z,26.63
2018-09-14T16:01:55.426Z,27.40
2018-09-14T16:04:23.965Z,29.97
2018-09-14T16:06:52.505Z,30.40
2018-09-14T16:09:21.086Z,29.00
2018-09-14T16:11:49.588Z,29.50
2018-09-14T16:14:18.149Z,26.77
2018-09-14T16:16:46.657Z,25.17
2018-09-14T16:19:16.198Z,19.30
2018-09-14T16:21:44.718Z,19.87
2018-09-14T16:24:13.429Z,20.80
2018-09-14T16:26:41.998Z,21.20
2018-09-14T16:29:10.533Z,21.97
2018-09-14T16:31:39.017Z,21.77
2018-09-14T16:34:07.536Z,20.73
2018-09-14T16:36:36.017Z,21.40
2018-09-14T16:39:05.892Z,20.73
2018-09-14T16:41:34.347Z,19.80
2018-09-14T16:44:02.837Z,19.00
2018-09-14T16:46:31.311Z,15.50
2018-09-14T16:48:59.791Z,15.53
2018-09-14T16:51:28.364Z,14.83
2018-09-14T16:53:56.837Z,14.70
2018-09-14T16:56:26.002Z,14.37
2018-09-14T16:58:54.513Z,14.93
2018-09-14T17:01:22.972Z,14.73
2018-09-14T17:03:51.434Z,15.03
2018-09-14T17:06:20.094Z,15.10
2018-09-14T17:08:48.562Z,16.00
2018-09-14T17:11:17.042Z,15.57
2018-09-14T17:13:45.549Z,16.10
2018-09-14T17:16:14.108Z,15.60
2018-09-14T17:18:42.701Z,15.80
2018-09-14T17:21:11.202Z,15.63
2018-09-14T17:23:39.641Z,15.93
2018-09-14T17:26:08.097Z,16.37
2018-09-14T17:28:36.651Z,17.50
2018-09-14T17:31:05.144Z,16.20
2018-09-14T17:33:33.685Z,16.67
2018-09-14T17:36:02.302Z,16.43
2018-09-14T17:38:30.773Z,16.87
2018-09-14T17:40:59.284Z,16.77
2018-09-14T17:43:27.798Z,16.03
2018-09-14T17:45:56.277Z,15.00
2018-09-14T17:48:24.761Z,15.87
2018-09-14T17:50:53.282Z,15.80
2018-09-14T17:53:21.757Z,15.57
2018-09-14T17:55:50.224Z,16.30
2018-09-14T17:58:18.821Z,16.47
2018-09-14T18:00:47.305Z,16.57
2018-09-14T18:03:15.963Z,16.70
2018-09-14T18:05:44.479Z,16.73
2018-09-14T18:08:13.086Z,16.83
2018-09-14T18:10:41.672Z,16.83
2018-09-14T18:13:10.296Z,16.77
2018-09-14T18:15:38.911Z,17.77
2018-09-14T18:18:07.474Z,16.80
2018-09-14T18:20:36.055Z,16.63
2018-09-14T18:23:04.637Z,17.23
2018-09-14T18:25:34.019Z,17.10
2018-09-14T18:28:02.661Z,16.57
2018-09-14T18:30:31.201Z,16.80
2018-09-14T18:33:00.007Z,17.53
2018-09-14T18:35:28.578Z,17.63
2018-09-14T18:37:57.090Z,17.57
2018-09-14T18:40:25.683Z,17.57
2018-09-14T18:42:54.219Z,17.97
2018-09-14T18:45:22.757Z,17.60
2018-09-14T18:47:51.378Z,17.60
2018-09-14T18:50:19.962Z,16.83
2018-09-14T18:52:49.108Z,17.07
2018-09-14T18:55:18.294Z,17.43
2018-09-14T18:57:46.864Z,16.77
2018-09-14T19:00:15.438Z,16.37
2018-09-14T19:02:44.007Z,17.60
2018-09-14T19:05:12.530Z,18.03
2018-09-14T19:07:41.202Z,16.90
2018-09-14T19:10:09.757Z,17.20
2018-09-14T19:12:38.305Z,17.87
2018-09-14T19:15:07.647Z,17.53
2018-09-14T19:17:36.208Z,19.07
2018-09-14T19:20:04.830Z,18.63
2018-09-14T19:22:33.370Z,19.37
2018-09-14T19:25:02.151Z,19.50
2018-09-14T19:27:30.668Z,19.60
2018-09-14T19:29:59.288Z,20.20
2018-09-14T19:32:27.848Z,19.03
2018-09-14T19:34:57.104Z,19.57
2018-09-14T19:37:25.697Z,20.70
2018-09-14T19:39:54.257Z,21.30
2018-09-14T19:42:22.825Z,21.63
2018-09-14T19:44:51.374Z,22.53
2018-09-14T19:47:19.929Z,22.00
2018-09-14T19:49:48.622Z,23.17
2018-09-14T19:52:18.208Z,24.67
2018-09-14T19:54:47.717Z,23.90
2018-09-14T19:57:17.035Z,23.37
2018-09-14T19:59:45.569Z,22.77
2018-09-14T20:02:14.188Z,22.93
2018-09-14T20:04:43.341Z,23.07
2018-09-14T20:07:11.941Z,23.37
2018-09-14T20:09:40.602Z,23.00
2018-09-14T20:12:09.195Z,22.73
2018-09-14T20:14:37.822Z,22.77
2018-09-14T20:17:06.652Z,22.53
2018-09-14T20:19:35.209Z,22.63
2018-09-14T20:22:03.864Z,23.13
2018-09-14T20:24:32.478Z,24.00
2018-09-14T20:27:02.055Z,23.30
2018-09-14T20:29:31.035Z,23.40
2018-09-14T20:31:59.603Z,23.33
2018-09-14T20:34:28.158Z,24.30
2018-09-14T20:36:57.754Z,24.00
2018-09-14T20:39:26.961Z,25.40
2018-09-14T20:41:55.890Z,24.03
2018-09-14T20:44:25.430Z,23.43
2018-09-14T20:46:54.391Z,25.47
2018-09-14T20:49:22.951Z,25.07
2018-09-14T20:51:51.594Z,24.60
2018-09-14T20:54:20.211Z,25.00
2018-09-14T20:56:48.785Z,24.17
2018-09-14T20:59:18.379Z,25.57
2018-09-14T21:01:47.254Z,26.07
2018-09-14T21:04:15.876Z,26.73
2018-09-14T21:06:44.401Z,26.17
2018-09-14T21:09:12.966Z,26.97
2018-09-14T21:11:41.550Z,26.03
2018-09-14T21:14:10.117Z,26.07
2018-09-14T21:16:38.886Z,25.80
2018-09-14T21:19:07.467Z,26.90
2018-09-14T21:21:36.001Z,25.57
2018-09-14T21:24:04.515Z,24.50
2018-09-14T21:26:33.077Z,25.30
2018-09-14T21:29:01.627Z,25.87
2018-09-14T21:31:30.201Z,23.60
2018-09-14T21:33:58.753Z,24.17
2018-09-14T21:36:27.237Z,24.27
2018-09-14T21:38:56.203Z,23.17
2018-09-14T21:41:24.841Z,22.40
2018-09-14T21:43:53.515Z,22.47
2018-09-14T21:46:22.065Z,22.10
2018-09-14T21:48:50.602Z,20.87
2018-09-14T21:51:19.253Z,22.43
2018-09-14T21:53:47.992Z,21.50
2018-09-14T21:56:16.367Z,21.20
2018-09-14T21:58:44.968Z,20.40
2018-09-14T22:01:19.665Z,20.53
2018-09-14T22:03:48.404Z,20.40
2018-09-14T22:06:16.977Z,20.60
2018-09-14T22:08:45.565Z,19.27
2018-09-14T22:11:14.257Z,17.07
2018-09-14T22:13:42.795Z,17.23
2018-09-14T22:16:11.357Z,15.90
2018-09-14T22:18:40.051Z,14.37
2018-09-14T22:21:08.754Z,13.43
2018-09-14T22:23:37.318Z,10.70
2018-09-14T22:26:05.908Z,11.27
2018-09-14T22:28:34.520Z,9.73
2018-09-14T22:31:03.108Z,9.70
2018-09-14T22:33:32.058Z,9.17
2018-09-14T22:36:00.565Z,9.20
2018-09-14T22:38:29.081Z,7.70
2018-09-14T22:40:57.583Z,7.80
2018-09-14T22:43:26.101Z,8.13
2018-09-14T22:45:54.763Z,7.97
2018-09-14T22:48:23.277Z,8.10
2018-09-14T22:50:51.794Z,7.93
2018-09-14T22:53:20.418Z,7.63
2018-09-14T22:55:48.949Z,7.67
2018-09-14T22:58:17.554Z,7.67
2018-09-14T23:00:51.427Z,7.57
2018-09-14T23:03:19.950Z,7.70
2018-09-14T23:05:48.473Z,7.93
2018-09-14T23:08:17.026Z,6.97
2018-09-14T23:10:46.547Z,7.40
2018-09-14T23:13:15.091Z,6.60
2018-09-14T23:16:03.128Z,7.73
2018-09-14T23:18:32.264Z,7.13
2018-09-14T23:21:01.417Z,6.80
2018-09-14T23:23:30.036Z,7.13
2018-09-14T23:26:03.047Z,6.77
2018-09-14T23:28:31.554Z,7.30
2018-09-14T23:31:00.133Z,7.30
2018-09-14T23:33:28.653Z,6.80
2018-09-14T23:35:57.154Z,6.73
2018-09-14T23:38:25.706Z,6.67
2018-09-14T23:40:54.243Z,5.73
2018-09-14T23:43:22.753Z,5.93
2018-09-14T23:45:51.621Z,6.30
2018-09-14T23:48:20.153Z,6.17
2018-09-14T23:50:48.761Z,5.60
2018-09-14T23:53:17.501Z,5.27
2018-09-14T23:55:46.026Z,5.60
2018-09-14T23:58:14.606Z,6.40
